Time;durP1;ratioP1;P1;durP2;ratioP2;P2;SDS_P1;SDS_P2;PMS_P1;PMS_P2;Temp;Humidity;BMP_temperature;BMP_pressure;BME280_temperature;BME280_humidity;BME280_pressure;Samples;Min_cycle;Max_cycle;Signal;HPM_P1;HPM_P2
2021/10/10 00:01:16;;;;;;;23.80;15.00;;;;;;;2.63;71.03;98475.57;116119;1183;59516;-61
2021/10/10 00:03:46;;;;;;;20.00;14.30;;;;;;;2.56;71.28;98476.07;116146;1184;71281;-66
2021/10/10 00:06:16;;;;;;;26.80;16.80;;;;;;;2.51;70.26;98475.86;116138;1183;67564;-63
2021/10/10 00:08:46;;;;;;;15.10;11.80;;;;;;;2.45;71.44;98475.29;116270;1178;69635;-63
2021/10/10 00:11:15;;;;;;;20.70;11.80;;;;;;;2.42;69.26;98470.38;116089;1184;59531;-64
2021/10/10 00:13:45;;;;;;;21.80;15.30;;;;;;;2.40;69.58;98467.86;116209;1183;59542;-68
2021/10/10 00:16:16;;;;;;;16.90;9.70;;;;;;;2.36;69.77;98463.64;116050;1184;70595;-65
2021/10/10 00:18:47;;;;;;;22.80;14.10;;;;;;;2.37;68.34;98465.33;115995;1184;67713;-67
2021/10/10 00:21:17;;;;;;;11.00;7.00;;;;;;;2.34;69.92;98468.50;116162;1184;69257;-66
2021/10/10 00:23:46;;;;;;;22.80;13.90;;;;;;;2.32;69.03;98474.22;116105;1182;59490;-64
2021/10/10 00:26:17;;;;;;;18.30;11.10;;;;;;;2.28;68.43;98471.23;115987;1184;59596;-65
2021/10/10 00:28:47;;;;;;;18.60;10.40;;;;;;;2.24;68.62;98478.36;116169;1183;70399;-65
2021/10/10 00:31:17;;;;;;;15.40;9.60;;;;;;;2.19;68.49;98472.27;116223;1184;67405;-66
2021/10/10 00:33:47;;;;;;;19.20;11.10;;;;;;;2.15;68.21;98469.45;116193;1183;69054;-63
2021/10/10 00:36:18;;;;;;;11.50;6.80;;;;;;;2.10;69.29;98470.94;116177;1183;59515;-63
2021/10/10 00:38:47;;;;;;;21.30;13.80;;;;;;;2.04;67.63;98469.00;116148;1183;59635;-61
2021/10/10 00:41:18;;;;;;;28.30;15.40;;;;;;;1.98;71.97;98466.21;116173;1183;71382;-66
2021/10/10 00:43:48;;;;;;;24.80;15.80;;;;;;;1.92;72.27;98463.05;115933;1183;69172;-65
2021/10/10 00:46:19;;;;;;;23.60;13.70;;;;;;;1.89;72.26;98461.23;116223;1183;68528;-63
2021/10/10 00:48:49;;;;;;;17.70;11.30;;;;;;;1.86;71.02;98460.11;116125;1184;59515;-65
2021/10/10 00:51:19;;;;;;;15.70;10.40;;;;;;;1.83;70.40;98456.36;116192;1182;58694;-64
2021/10/10 00:53:50;;;;;;;15.80;10.90;;;;;;;1.81;70.33;98457.80;116100;1182;71371;-63
2021/10/10 00:56:22;;;;;;;;;;;;;;;1.78;69.92;98458.71;116106;1184;67542;-64
2021/10/10 00:58:57;;;;;;;11.90;8.30;;;;;;;1.76;69.35;98459.45;116077;1182;68374;-65
2021/10/10 01:01:28;;;;;;;13.00;9.10;;;;;;;1.73;69.64;98460.37;116115;1183;59596;-67
2021/10/10 01:03:59;;;;;;;15.50;10.40;;;;;;;1.70;69.68;98459.91;116179;1182;59470;-60
2021/10/10 01:06:29;;;;;;;27.60;16.60;;;;;;;1.67;69.22;98460.83;116214;1183;71400;-64
2021/10/10 01:08:59;;;;;;;22.70;12.50;;;;;;;1.63;72.21;98460.93;116165;1184;67782;-63
2021/10/10 01:11:29;;;;;;;19.00;13.80;;;;;;;1.57;73.15;98457.96;116134;1184;69085;-61
2021/10/10 01:14:00;;;;;;;13.40;9.50;;;;;;;1.53;72.28;98459.74;115903;1184;59596;-62
2021/10/10 01:16:30;;;;;;;13.20;9.20;;;;;;;1.51;69.78;98458.23;115947;1184;59637;-63
2021/10/10 01:19:00;;;;;;;17.40;11.50;;;;;;;1.52;69.29;98457.17;116103;1183;71392;-65
2021/10/10 01:21:30;;;;;;;;;;;;;;;1.50;71.41;98460.48;116162;1184;68372;-62
2021/10/10 01:24:03;;;;;;;19.90;12.00;;;;;;;1.50;70.13;98463.75;116060;1184;69336;-65
2021/10/10 01:26:37;;;;;;;23.40;14.60;;;;;;;1.45;74.23;98460.77;116165;1182;59576;-66
2021/10/10 01:29:07;;;;;;;19.60;13.00;;;;;;;1.36;74.92;98461.11;116088;1184;59498;-66
2021/10/10 01:31:38;;;;;;;26.60;15.80;;;;;;;1.33;74.64;98466.33;116093;1183;71298;-62
2021/10/10 01:34:08;;;;;;;22.00;14.70;;;;;;;1.26;75.42;98465.77;116185;1183;67940;-66
2021/10/10 01:36:38;;;;;;;23.40;14.30;;;;;;;1.19;75.84;98468.81;116132;1182;69306;-62
2021/10/10 01:39:08;;;;;;;19.10;11.20;;;;;;;1.16;75.67;98468.19;116124;1182;60019;-61
2021/10/10 01:41:38;;;;;;;23.90;14.20;;;;;;;1.12;74.26;98469.45;116222;1184;59555;-63
2021/10/10 01:44:15;;;;;;;15.00;9.40;;;;;;;1.09;74.27;98469.16;116089;1183;70639;-61
2021/10/10 01:46:45;;;;;;;18.00;11.70;;;;;;;1.09;73.21;98466.59;116111;1183;68377;-62
2021/10/10 01:49:15;;;;;;;;;;;;;;;1.10;72.68;98461.42;116107;1182;67788;-63
2021/10/10 01:51:45;;;;;;;12.20;8.00;;;;;;;1.13;72.13;98458.13;116086;1183;59548;-63
2021/10/10 01:54:15;;;;;;;22.90;13.60;;;;;;;1.16;72.23;98460.81;116036;1183;59011;-64
2021/10/10 01:56:45;;;;;;;;;;;;;;;1.19;74.12;98452.67;116109;1183;71452;-61
2021/10/10 01:59:16;;;;;;;13.60;8.90;;;;;;;1.21;73.72;98448.34;116114;1183;67804;-66
2021/10/10 02:01:46;;;;;;;18.90;10.30;;;;;;;1.27;71.88;98452.86;116102;1184;68356;-64
2021/10/10 02:04:16;;;;;;;17.60;10.60;;;;;;;1.32;72.10;98457.58;116106;1184;59564;-65
2021/10/10 02:06:46;;;;;;;17.30;10.90;;;;;;;1.29;71.86;98451.27;116014;1184;59564;-62
2021/10/10 02:09:16;;;;;;;17.40;9.60;;;;;;;1.29;71.56;98451.63;116065;1183;70386;-66
2021/10/10 02:11:46;;;;;;;;;;;;;;;1.29;71.34;98455.41;115873;1184;68402;-66
2021/10/10 02:14:17;;;;;;;16.80;10.70;;;;;;;1.28;71.69;98454.05;116031;1183;69021;-65
2021/10/10 02:16:50;;;;;;;20.50;13.20;;;;;;;1.26;73.52;98451.85;115813;1183;59622;-63
2021/10/10 02:19:20;;;;;;;14.50;8.90;;;;;;;1.28;72.46;98449.58;115862;1184;59515;-61
2021/10/10 02:21:52;;;;;;;27.20;14.40;;;;;;;1.33;73.09;98450.52;115832;1183;71186;-62
2021/10/10 02:24:22;;;;;;;;;;;;;;;1.34;74.14;98441.57;116082;1184;68319;-63
2021/10/10 02:26:53;;;;;;;14.80;10.20;;;;;;;1.37;73.54;98435.99;116053;1183;68520;-64
2021/10/10 02:29:23;;;;;;;19.40;11.60;;;;;;;1.40;73.18;98431.32;116139;1184;59502;-61
2021/10/10 02:31:55;;;;;;;19.50;12.20;;;;;;;1.44;73.62;98428.83;115849;1184;59490;-63
2021/10/10 02:34:25;;;;;;;14.70;9.80;;;;;;;1.48;74.26;98425.83;115938;1184;71152;-63
2021/10/10 02:36:56;;;;;;;24.00;14.70;;;;;;;1.53;73.60;98424.36;116427;1184;67469;-65
2021/10/10 02:39:25;;;;;;;17.60;11.50;;;;;;;1.54;75.62;98421.58;115979;1184;68525;-61
2021/10/10 02:41:58;;;;;;;17.90;11.40;;;;;;;1.59;74.72;98426.81;116093;1183;59610;-62
2021/10/10 02:44:28;;;;;;;16.40;10.00;;;;;;;1.63;74.24;98430.17;115892;1184;59596;-62
2021/10/10 02:46:57;;;;;;;20.20;11.40;;;;;;;1.67;73.39;98427.33;115949;1184;71309;-63
2021/10/10 02:49:28;;;;;;;;;;;;;;;1.71;73.65;98423.80;116104;1184;68403;-62
2021/10/10 02:51:58;;;;;;;13.90;7.20;;;;;;;1.76;73.24;98424.23;116094;1184;68350;-62
2021/10/10 02:54:28;;;;;;;10.30;7.30;;;;;;;1.79;72.19;98423.28;116036;1182;59548;-62
2021/10/10 02:56:59;;;;;;;14.40;9.00;;;;;;;1.83;71.89;98425.44;116074;1184;59561;-65
2021/10/10 02:59:30;;;;;;;13.80;7.90;;;;;;;1.86;71.14;98426.05;116120;1182;71074;-62
2021/10/10 03:02:00;;;;;;;13.40;9.70;;;;;;;1.90;70.88;98428.04;116064;1182;68114;-66
2021/10/10 03:04:31;;;;;;;14.50;8.50;;;;;;;1.91;70.72;98427.15;115991;1184;67594;-64
2021/10/10 03:07:01;;;;;;;14.20;8.60;;;;;;;1.92;71.18;98419.75;116176;1184;59533;-64
2021/10/10 03:09:31;;;;;;;9.50;5.80;;;;;;;1.93;71.04;98420.57;116261;1183;59551;-64
2021/10/10 03:12:02;;;;;;;;;;;;;;;1.95;71.26;98415.91;115993;1184;70375;-63
2021/10/10 03:14:32;;;;;;;;;;;;;;;1.96;71.76;98417.08;116123;1183;69655;-64
2021/10/10 03:17:02;;;;;;;14.10;8.20;;;;;;;1.93;74.00;98418.15;116134;1184;68477;-62
2021/10/10 03:19:34;;;;;;;21.60;12.40;;;;;;;1.93;72.54;98416.96;116116;1183;59509;-67
2021/10/10 03:22:04;;;;;;;12.60;8.40;;;;;;;1.93;73.79;98416.61;116169;1182;59572;-63
2021/10/10 03:24:34;;;;;;;14.20;10.20;;;;;;;1.96;71.10;98413.82;116088;1182;71252;-63
2021/10/10 03:27:04;;;;;;;13.20;8.80;;;;;;;1.96;70.92;98415.01;116110;1183;68353;-65
2021/10/10 03:29:33;;;;;;;26.20;14.60;;;;;;;1.98;71.84;98412.20;116164;1182;69244;-64
2021/10/10 03:32:04;;;;;;;13.30;8.00;;;;;;;1.99;72.13;98407.20;115836;1184;60385;-62
2021/10/10 03:34:34;;;;;;;13.60;9.10;;;;;;;2.02;71.49;98410.05;115916;1184;59604;-64
2021/10/10 03:37:03;;;;;;;23.20;12.80;;;;;;;2.05;71.72;98409.99;116022;1184;71878;-62
2021/10/10 03:39:34;;;;;;;9.80;6.10;;;;;;;2.07;72.72;98403.41;116121;1183;66764;-61
2021/10/10 03:42:04;;;;;;;20.20;13.60;;;;;;;2.10;72.47;98399.91;116089;1182;70466;-63
2021/10/10 03:44:34;;;;;;;13.30;10.00;;;;;;;2.12;72.82;98395.56;116104;1183;59513;-62
2021/10/10 03:47:05;;;;;;;11.70;8.20;;;;;;;2.16;72.30;98393.59;116139;1182;59566;-65
2021/10/10 03:49:35;;;;;;;12.40;9.00;;;;;;;2.19;72.37;98393.33;116120;1182;70584;-64
2021/10/10 03:52:06;;;;;;;17.10;11.60;;;;;;;2.22;73.13;98392.08;116105;1182;67535;-65
2021/10/10 03:57:25;;;;;;;19.30;12.80;;;;;;;2.27;71.53;98385.25;116063;1184;59599;-63
2021/10/10 03:59:57;;;;;;;19.40;13.40;;;;;;;2.27;73.42;98389.02;116160;1182;59555;-64
2021/10/10 04:02:27;;;;;;;17.50;11.90;;;;;;;2.30;73.12;98388.60;116112;1182;71630;-64
2021/10/10 04:04:58;;;;;;;15.90;10.40;;;;;;;2.31;74.59;98388.06;116030;1184;67777;-65
2021/10/10 04:07:27;;;;;;;18.40;11.30;;;;;;;2.31;74.26;98388.58;115944;1183;69285;-64
2021/10/10 04:09:57;;;;;;;16.10;9.80;;;;;;;2.31;72.63;98388.92;116188;1184;59513;-67
2021/10/10 04:12:27;;;;;;;15.90;10.60;;;;;;;2.32;72.35;98389.77;116035;1184;59545;-64
2021/10/10 04:14:57;;;;;;;20.20;13.60;;;;;;;2.31;74.20;98395.63;116201;1182;71857;-65
2021/10/10 04:17:26;;;;;;;21.00;12.00;;;;;;;2.29;74.41;98396.70;115954;1184;68508;-62
2021/10/10 04:19:56;;;;;;;14.30;10.20;;;;;;;2.29;72.67;98395.34;115957;1182;68475;-61
2021/10/10 04:22:25;;;;;;;16.70;11.30;;;;;;;2.26;72.34;98394.87;116009;1183;59573;-64
2021/10/10 04:24:55;;;;;;;18.10;11.90;;;;;;;2.25;73.38;98393.35;116022;1184;59529;-62
2021/10/10 04:27:26;;;;;;;15.70;9.40;;;;;;;2.23;73.71;98394.95;115925;1183;70489;-68
2021/10/10 04:29:55;;;;;;;24.90;15.30;;;;;;;2.23;72.18;98395.85;116103;1184;67555;-63
2021/10/10 04:32:25;;;;;;;26.90;17.20;;;;;;;2.18;74.27;98394.56;116033;1182;68347;-64
2021/10/10 04:34:55;;;;;;;25.00;15.00;;;;;;;2.13;73.95;98393.14;116005;1184;59572;-65
2021/10/10 04:37:24;;;;;;;22.50;13.30;;;;;;;2.11;72.95;98387.33;116218;1184;59513;-63
2021/10/10 04:39:54;;;;;;;16.10;11.50;;;;;;;2.11;74.01;98388.38;116070;1183;71818;-65
2021/10/10 04:42:24;;;;;;;16.30;10.60;;;;;;;2.12;73.57;98385.23;116020;1178;68408;-64
2021/10/10 04:44:54;;;;;;;14.10;9.80;;;;;;;2.15;73.18;98379.50;115878;1184;69289;-62
2021/10/10 04:47:24;;;;;;;13.80;9.70;;;;;;;2.19;72.79;98377.70;116125;1183;59549;-62
2021/10/10 04:49:53;;;;;;;14.80;9.30;;;;;;;2.22;73.48;98375.20;115922;1176;60096;-66
2021/10/10 04:52:23;;;;;;;8.30;5.90;;;;;;;2.26;72.81;98373.23;116116;1184;71407;-62
2021/10/10 04:54:52;;;;;;;19.60;11.60;;;;;;;2.31;72.05;98376.88;116165;1183;67699;-64
2021/10/10 04:57:21;;;;;;;32.20;18.00;;;;;;;2.37;72.25;98380.86;116194;1177;69697;-67
2021/10/10 04:59:51;;;;;;;21.00;14.40;;;;;;;2.40;75.74;98383.19;115967;1184;59529;-67
2021/10/10 05:02:22;;;;;;;23.40;12.80;;;;;;;2.40;75.21;98385.95;115987;1184;59542;-64
2021/10/10 05:04:52;;;;;;;17.60;11.10;;;;;;;2.44;73.63;98383.77;115955;1183;71387;-65
2021/10/10 05:07:21;;;;;;;28.00;16.70;;;;;;;2.51;73.55;98385.00;116150;1182;68466;-63
2021/10/10 05:09:50;;;;;;;27.00;15.80;;;;;;;2.52;74.89;98384.29;116097;1183;69420;-62
2021/10/10 05:12:20;;;;;;;29.10;18.50;;;;;;;2.54;74.06;98383.18;116081;1183;59567;-65
2021/10/10 05:14:49;;;;;;;19.20;10.80;;;;;;;2.61;73.65;98381.47;115937;1183;59609;-63
2021/10/10 05:17:19;;;;;;;18.20;11.80;;;;;;;2.70;72.45;98375.90;116114;1184;71448;-63
2021/10/10 05:19:48;;;;;;;18.80;13.50;;;;;;;2.79;73.66;98374.82;116131;1183;69132;-62
2021/10/10 05:22:18;;;;;;;14.70;9.40;;;;;;;2.87;73.00;98381.66;116088;1182;69644;-63
2021/10/10 05:24:47;;;;;;;21.80;13.30;;;;;;;2.93;73.08;98388.90;116198;1182;59886;-63
2021/10/10 05:27:17;;;;;;;20.90;12.70;;;;;;;2.96;73.24;98390.55;116110;1184;59529;-63
2021/10/10 05:29:46;;;;;;;18.70;13.60;;;;;;;3.01;72.02;98388.34;116212;1183;71466;-64
2021/10/10 05:32:16;;;;;;;24.10;16.00;;;;;;;3.06;72.20;98393.71;116119;1183;68534;-68
2021/10/10 05:34:46;;;;;;;23.90;15.30;;;;;;;3.11;73.27;98395.84;116112;1184;68466;-65
2021/10/10 05:37:16;;;;;;;16.80;12.00;;;;;;;3.15;72.53;98398.64;116019;1184;59571;-64
2021/10/10 05:39:45;;;;;;;15.70;11.40;;;;;;;3.23;72.25;98402.39;116198;1183;59516;-66
2021/10/10 05:42:15;;;;;;;12.60;8.60;;;;;;;3.33;72.33;98398.48;116193;1182;71825;-62
2021/10/10 05:44:45;;;;;;;;;;;;;;;3.46;71.77;98400.17;116215;1184;67637;-63
2021/10/10 05:47:14;;;;;;;21.00;13.40;;;;;;;3.59;73.00;98397.05;116181;1183;68552;-66
2021/10/10 05:49:43;;;;;;;15.70;10.20;;;;;;;3.72;71.76;98397.89;116142;1184;59541;-64
2021/10/10 05:52:12;;;;;;;13.70;9.60;;;;;;;3.87;71.10;98396.75;116204;1182;59577;-65
2021/10/10 05:54:41;;;;;;;18.40;12.80;;;;;;;4.00;71.90;98402.90;116170;1183;70614;-66
2021/10/10 05:57:14;;;;;;;24.10;15.80;;;;;;;4.09;71.01;98402.80;116085;1184;67694;-64
2021/10/10 05:59:43;;;;;;;22.90;13.20;;;;;;;4.19;70.41;98400.08;115991;1184;67992;-64
2021/10/10 06:02:12;;;;;;;24.80;16.60;;;;;;;4.31;69.57;98402.44;116172;1182;59995;-66
2021/10/10 06:04:41;;;;;;;30.20;19.30;;;;;;;4.42;69.13;98400.73;116127;1183;59500;-64
2021/10/10 06:07:11;;;;;;;39.80;23.20;;;;;;;4.55;68.79;98392.19;116193;1184;71196;-63
2021/10/10 06:09:40;;;;;;;33.50;22.50;;;;;;;4.79;68.33;98395.86;116103;1184;68456;-62
2021/10/10 06:12:09;;;;;;;25.50;15.70;;;;;;;5.25;67.27;98398.77;116031;1184;70300;-63
2021/10/10 06:14:39;;;;;;;21.90;12.90;;;;;;;5.65;66.61;98401.95;116203;1184;59556;-64
2021/10/10 06:17:10;;;;;;;33.90;21.80;;;;;;;6.03;65.13;98398.80;116218;1183;59615;-66
2021/10/10 06:19:39;;;;;;;30.50;19.40;;;;;;;6.45;63.41;98390.23;116187;1183;70667;-64
2021/10/10 06:22:09;;;;;;;26.10;18.00;;;;;;;6.71;62.18;98388.17;116175;1183;66804;-65
2021/10/10 06:24:38;;;;;;;20.90;15.20;;;;;;;6.82;62.33;98387.85;116177;1184;68733;-67
2021/10/10 06:27:07;;;;;;;29.90;20.40;;;;;;;6.92;60.56;98390.36;116195;1184;59541;-66
2021/10/10 06:29:37;;;;;;;20.00;13.50;;;;;;;6.98;60.53;98394.45;116096;1184;59733;-67
2021/10/10 06:32:06;;;;;;;19.40;12.80;;;;;;;7.05;60.50;98392.94;116212;1184;71380;-66
2021/10/10 06:34:35;;;;;;;29.20;20.10;;;;;;;7.09;59.11;98397.09;116199;1183;68436;-69
2021/10/10 06:37:04;;;;;;;18.50;12.30;;;;;;;7.12;59.13;98397.81;116104;1182;68802;-64
2021/10/10 06:39:35;;;;;;;24.10;16.70;;;;;;;7.19;59.74;98396.49;116220;1183;59574;-66
2021/10/10 06:42:05;;;;;;;20.20;14.40;;;;;;;6.98;54.51;98398.41;116161;1183;59535;-64
2021/10/10 06:44:36;;;;;;;22.90;14.80;;;;;;;6.77;54.99;98397.23;115969;1174;71583;-68
2021/10/10 06:47:05;;;;;;;;;;;;;;;6.63;57.55;98396.27;115925;1184;66723;-63
2021/10/10 06:49:35;;;;;;;18.60;11.20;;;;;;;6.76;58.29;98395.03;116122;1183;69053;-67
2021/10/10 06:52:05;;;;;;;11.60;8.00;;;;;;;6.97;57.99;98395.36;116089;1183;59994;-66
2021/10/10 06:54:34;;;;;;;20.20;11.70;;;;;;;7.22;56.32;98395.86;116185;1183;59563;-65
2021/10/10 06:57:03;;;;;;;12.40;8.10;;;;;;;7.43;54.85;98394.22;116151;1183;71848;-65
2021/10/10 06:59:33;;;;;;;17.80;12.60;;;;;;;7.66;54.87;98388.32;115949;1184;67735;-64
2021/10/10 07:02:02;;;;;;;21.40;13.10;;;;;;;7.81;53.14;98390.80;116136;1184;68457;-67
2021/10/10 07:04:32;;;;;;;21.20;12.50;;;;;;;7.81;52.39;98389.20;116052;1184;59593;-68
2021/10/10 07:07:01;;;;;;;12.50;8.30;;;;;;;7.83;53.15;98386.14;116168;1182;59634;-65
2021/10/10 07:09:30;;;;;;;9.70;7.00;;;;;;;8.00;53.12;98379.49;115973;1183;70739;-64
2021/10/10 07:11:59;;;;;;;15.70;10.70;;;;;;;8.30;52.77;98381.37;116181;1182;68187;-67
2021/10/10 07:14:30;;;;;;;16.80;9.50;;;;;;;8.89;49.00;98378.80;116166;1183;69831;-65
2021/10/10 07:16:59;;;;;;;21.00;13.80;;;;;;;9.67;47.13;98384.10;116139;1184;59519;-66
2021/10/10 07:19:44;;;;;;;12.40;9.00;;;;;;;10.44;45.37;98381.09;116266;1183;59532;-68
2021/10/10 07:22:27;;;;;;;22.10;14.90;;;;;;;11.43;44.11;98382.30;116222;1183;71365;-69
2021/10/10 07:25:04;;;;;;;15.30;9.00;;;;;;;12.36;42.60;98381.34;116181;1182;67848;-65
2021/10/10 07:27:35;;;;;;;18.80;13.40;;;;;;;13.40;42.29;98379.48;116109;1184;69269;-65
2021/10/10 07:30:06;;;;;;;18.40;13.00;;;;;;;14.04;38.80;98376.58;116206;1184;59564;-69
2021/10/10 07:32:35;;;;;;;13.60;8.70;;;;;;;14.89;39.28;98374.54;116291;1182;59516;-71
2021/10/10 07:35:06;;;;;;;11.70;7.70;;;;;;;15.84;37.73;98373.42;116097;1184;72078;-66
2021/10/10 07:37:35;;;;;;;13.30;10.30;;;;;;;16.50;34.18;98368.63;115886;1184;66767;-65
2021/10/10 07:40:05;;;;;;;13.40;9.50;;;;;;;16.88;32.60;98367.48;116257;1182;68293;-66
2021/10/10 07:42:35;;;;;;;15.90;10.60;;;;;;;17.53;33.89;98367.44;116244;1182;59529;-67
2021/10/10 07:45:07;;;;;;;17.30;13.10;;;;;;;18.13;31.30;98365.20;116274;1183;59625;-65
2021/10/10 07:50:13;;;;;;;17.80;12.10;;;;;;;18.83;27.88;98357.83;116097;1184;69475;-70
2021/10/10 07:52:42;;;;;;;14.40;10.70;;;;;;;19.47;27.77;98361.48;116242;1184;69285;-64
2021/10/10 07:55:12;;;;;;;12.60;8.60;;;;;;;19.33;25.05;98358.38;116153;1184;59541;-69
2021/10/10 07:57:41;;;;;;;10.10;7.30;;;;;;;19.88;26.66;98359.63;116211;1183;59541;-68
2021/10/10 08:00:11;;;;;;;19.50;9.90;;;;;;;20.39;25.28;98352.77;116219;1183;71394;-67
2021/10/10 08:02:49;;;;;;;11.40;7.20;;;;;;;20.66;25.52;98343.18;116050;1184;68535;-70
2021/10/10 08:05:20;;;;;;;14.80;9.80;;;;;;;20.89;22.69;98343.42;116144;1182;68313;-63
2021/10/10 08:07:50;;;;;;;13.50;8.90;;;;;;;20.79;22.67;98341.19;116231;1182;59561;-72
2021/10/10 08:10:20;;;;;;;12.60;8.60;;;;;;;20.78;22.44;98341.81;116139;1184;59577;-69
2021/10/10 08:12:50;;;;;;;12.60;8.40;;;;;;;20.63;21.92;98336.64;116249;1182;70555;-68
2021/10/10 08:15:19;;;;;;;11.10;6.60;;;;;;;20.36;22.44;98343.02;116329;1182;69147;-67
2021/10/10 08:17:48;;;;;;;9.00;6.40;;;;;;;20.83;22.69;98340.30;116196;1184;69290;-69
2021/10/10 08:20:17;;;;;;;13.80;8.90;;;;;;;20.94;22.27;98343.20;116027;1184;59473;-68
2021/10/10 08:22:48;;;;;;;13.60;8.80;;;;;;;20.40;22.74;98342.94;116180;1183;59557;-69
2021/10/10 08:25:17;;;;;;;10.00;7.00;;;;;;;20.59;22.33;98339.98;116246;1182;70720;-68
2021/10/10 08:27:47;;;;;;;12.60;8.30;;;;;;;20.70;22.18;98333.94;116199;1182;67666;-68
2021/10/10 08:30:19;;;;;;;13.10;8.80;;;;;;;20.00;21.92;98327.55;116126;1184;69213;-67
2021/10/10 08:32:48;;;;;;;11.30;7.60;;;;;;;19.22;22.94;98329.52;116180;1183;59519;-68
2021/10/10 08:35:18;;;;;;;12.20;6.90;;;;;;;19.97;23.27;98329.61;115960;1182;59581;-68
2021/10/10 08:37:48;;;;;;;12.20;7.70;;;;;;;20.49;22.64;98322.25;115969;1184;71440;-70
2021/10/10 08:40:17;;;;;;;8.50;6.30;;;;;;;21.19;23.13;98322.13;116181;1182;67742;-68
2021/10/10 08:42:52;;;;;;;11.60;7.00;;;;;;;21.99;23.29;98321.27;116370;1182;68584;-70
2021/10/10 08:45:29;;;;;;;10.50;7.10;;;;;;;22.08;19.46;98317.11;116150;1183;59530;-69
2021/10/10 08:47:59;;;;;;;8.10;5.60;;;;;;;22.13;20.93;98312.52;116057;1184;59576;-68
2021/10/10 08:50:30;;;;;;;8.00;5.90;;;;;;;22.92;19.95;98309.56;116245;1182;71998;-70
2021/10/10 08:53:01;;;;;;;11.20;7.70;;;;;;;23.63;19.98;98309.73;116293;1182;67467;-66
2021/10/10 08:55:32;;;;;;;7.30;5.60;;;;;;;24.35;19.58;98298.27;116160;1184;68485;-71
2021/10/10 08:58:03;;;;;;;10.10;6.40;;;;;;;24.82;18.30;98291.79;116141;1183;59888;-69
2021/10/10 09:00:35;;;;;;;9.30;5.60;;;;;;;24.85;18.25;98287.14;116137;1184;59519;-68
2021/10/10 09:03:12;;;;;;;10.30;7.20;;;;;;;24.54;18.09;98283.05;116157;1184;72072;-67
2021/10/10 09:05:50;;;;;;;7.50;5.40;;;;;;;24.70;18.40;98277.81;116193;1182;67790;-67
2021/10/10 09:08:21;;;;;;;7.40;4.90;;;;;;;25.54;18.93;98275.77;115996;1184;69385;-66
2021/10/10 09:11:01;;;;;;;10.10;5.70;;;;;;;26.33;17.65;98268.84;116094;1184;59580;-66
2021/10/10 09:13:35;;;;;;;8.20;5.00;;;;;;;26.13;15.89;98269.82;116116;1184;59558;-66
2021/10/10 09:16:06;;;;;;;10.90;6.00;;;;;;;26.14;16.08;98262.98;116206;1183;71395;-67
2021/10/10 09:18:43;;;;;;;7.90;4.30;;;;;;;25.89;16.39;98254.77;116102;1184;68323;-65
2021/10/10 09:21:22;;;;;;;5.50;3.90;;;;;;;25.98;15.99;98258.70;116075;1184;68584;-71
2021/10/10 09:23:56;;;;;;;4.40;3.60;;;;;;;26.00;15.71;98254.89;116036;1184;59551;-65
2021/10/10 09:26:25;;;;;;;5.50;3.40;;;;;;;25.99;15.51;98256.11;116193;1183;59515;-65
2021/10/10 09:28:54;;;;;;;;;;;;;;;26.21;15.81;98255.65;116208;1184;71744;-64
2021/10/10 09:31:27;;;;;;;5.20;3.30;;;;;;;26.11;14.70;98251.95;116261;1182;68697;-68
2021/10/10 09:33:58;;;;;;;6.00;3.60;;;;;;;25.44;15.13;98251.55;116211;1184;68994;-69
2021/10/10 09:36:29;;;;;;;5.30;3.70;;;;;;;24.78;15.98;98249.94;116184;1184;59573;-65
2021/10/10 09:39:10;;;;;;;6.70;4.30;;;;;;;24.19;16.34;98245.81;116206;1182;59548;-73
2021/10/10 09:41:51;;;;;;;6.80;4.00;;;;;;;23.56;16.98;98247.23;115978;1184;70691;-69
2021/10/10 09:44:27;;;;;;;5.70;3.90;;;;;;;23.21;17.60;98247.54;115997;1184;67801;-65
2021/10/10 09:47:01;;;;;;;6.50;4.40;;;;;;;23.52;17.52;98245.62;116171;1182;69029;-65
2021/10/10 09:49:34;;;;;;;5.80;3.60;;;;;;;23.85;17.98;98235.32;116153;1184;59553;-68
2021/10/10 09:52:07;;;;;;;5.50;3.60;;;;;;;23.97;17.34;98238.05;116081;1184;59566;-68
2021/10/10 09:54:49;;;;;;;5.30;3.20;;;;;;;23.95;17.53;98239.98;116238;1182;71406;-68
2021/10/10 09:57:20;;;;;;;4.60;3.30;;;;;;;23.90;17.54;98235.75;116231;1182;68202;-67
2021/10/10 09:59:50;;;;;;;4.00;3.00;;;;;;;24.09;17.68;98235.80;116271;1182;69303;-68
2021/10/10 10:02:39;;;;;;;5.30;4.00;;;;;;;24.89;16.72;98240.51;116143;1184;59515;-72
2021/10/10 10:05:09;;;;;;;6.50;3.50;;;;;;;25.28;15.56;98238.23;116157;1183;59566;-67
2021/10/10 10:07:39;;;;;;;5.40;3.70;;;;;;;25.50;16.31;98239.95;116356;1182;71214;-66
2021/10/10 10:10:08;;;;;;;5.40;3.70;;;;;;;25.18;16.29;98234.91;116298;1182;68387;-64
2021/10/10 10:12:38;;;;;;;6.90;4.20;;;;;;;24.93;17.23;98233.71;116204;1183;69270;-71
2021/10/10 10:15:07;;;;;;;;;;;;;;;25.18;16.23;98239.02;116254;1182;59558;-73
2021/10/10 10:17:36;;;;;;;4.60;3.30;;;;;;;24.44;16.38;98235.55;116320;1182;59566;-67
2021/10/10 10:20:06;;;;;;;6.70;3.60;;;;;;;25.42;16.63;98234.45;116316;1182;70682;-67
2021/10/10 10:22:37;;;;;;;6.10;3.60;;;;;;;26.62;16.45;98231.02;116257;1182;67883;-70
2021/10/10 10:25:07;;;;;;;6.30;3.30;;;;;;;27.74;15.30;98228.33;116234;1182;68483;-65
2021/10/10 10:27:36;;;;;;;6.30;3.10;;;;;;;28.38;14.10;98222.27;116120;1184;59568;-70
2021/10/10 10:30:06;;;;;;;;;;;;;;;28.48;13.77;98219.59;116397;1183;59558;-70
2021/10/10 10:32:36;;;;;;;5.90;3.60;;;;;;;28.79;14.03;98222.86;116191;1184;71508;-67
2021/10/10 10:35:14;;;;;;;3.20;2.20;;;;;;;29.10;13.95;98216.73;116174;1176;68663;-67
2021/10/10 10:37:43;;;;;;;3.80;2.80;;;;;;;29.76;13.31;98214.52;116223;1182;69255;-65
2021/10/10 10:40:18;;;;;;;4.80;3.10;;;;;;;30.28;13.27;98214.74;116014;1184;59545;-68
2021/10/10 10:42:49;;;;;;;4.40;3.10;;;;;;;30.38;12.68;98211.90;116236;1182;59492;-70
2021/10/10 10:45:21;;;;;;;7.20;3.50;;;;;;;29.49;12.63;98213.29;116101;1184;70851;-74
2021/10/10 10:47:53;;;;;;;4.00;2.80;;;;;;;29.58;13.24;98210.88;116295;1182;68344;-65
2021/10/10 10:50:39;;;;;;;4.50;2.30;;;;;;;29.97;13.02;98205.79;116135;1183;69278;-68
2021/10/10 10:53:30;;;;;;;5.60;2.40;;;;;;;29.94;12.44;98209.00;116219;1184;59519;-66
2021/10/10 10:55:59;;;;;;;6.30;3.60;;;;;;;28.98;12.88;98203.43;116223;1182;59545;-69
2021/10/10 10:58:45;;;;;;;4.40;3.40;;;;;;;28.49;13.66;98194.55;116176;1183;71660;-70
2021/10/10 11:01:14;;;;;;;5.60;3.50;;;;;;;27.10;14.40;98193.70;116198;1184;68493;-68
2021/10/10 11:03:46;;;;;;;5.60;3.00;;;;;;;26.61;15.11;98200.85;116125;1182;69241;-69
2021/10/10 11:06:15;;;;;;;6.70;3.30;;;;;;;26.14;15.42;98199.70;116287;1182;59490;-65
2021/10/10 11:08:44;;;;;;;4.90;2.40;;;;;;;25.68;15.80;98190.98;116149;1183;59536;-66
2021/10/10 11:11:23;;;;;;;4.30;2.50;;;;;;;25.57;15.73;98191.63;116253;1182;71796;-68
2021/10/10 11:13:55;;;;;;;6.40;3.50;;;;;;;26.03;16.08;98178.98;116225;1182;67558;-71
2021/10/10 11:16:29;;;;;;;4.20;2.20;;;;;;;26.36;15.78;98184.34;115978;1184;68596;-68
2021/10/10 11:19:09;;;;;;;4.20;3.00;;;;;;;27.00;15.42;98179.51;116315;1182;59539;-73
2021/10/10 11:21:41;;;;;;;4.70;2.20;;;;;;;25.90;15.58;98172.70;116158;1182;59621;-68
2021/10/10 11:24:19;;;;;;;3.20;2.00;;;;;;;26.42;15.18;98178.84;116200;1182;70741;-66
2021/10/10 11:26:50;;;;;;;3.70;2.00;;;;;;;26.25;15.17;98167.06;116273;1183;68462;-70
2021/10/10 11:29:26;;;;;;;2.80;1.90;;;;;;;25.55;15.52;98165.58;116234;1184;68499;-72
2021/10/10 11:31:57;;;;;;;4.60;1.80;;;;;;;25.36;16.04;98168.86;116307;1183;59573;-72
2021/10/10 11:34:26;;;;;;;3.40;1.80;;;;;;;25.24;15.72;98167.92;116299;1182;59564;-67
2021/10/10 11:36:57;;;;;;;5.10;2.10;;;;;;;24.84;16.12;98163.12;116223;1184;71125;-70
2021/10/10 11:39:35;;;;;;;3.60;2.00;;;;;;;24.33;16.57;98158.36;116141;1184;68290;-68
2021/10/10 11:42:08;;;;;;;2.50;1.50;;;;;;;23.87;17.19;98154.80;116066;1184;69735;-64
2021/10/10 11:44:39;;;;;;;7.00;3.60;;;;;;;23.57;17.63;98152.88;116041;1183;59577;-68
2021/10/10 11:47:25;;;;;;;6.20;3.10;;;;;;;23.35;17.74;98149.59;116188;1182;59526;-66